sensor_id;sensor_type;location;lat;lon;timestamp;P1;durP1;ratioP1;P2;durP2;ratioP2
4726;SDS011;2377;51.734;8.950;2023-05-07T00:02:20;19.83;;;14.13;;
4726;SDS011;2377;51.734;8.950;2023-05-07T00:04:47;22.43;;;15.73;;
4726;SDS011;2377;51.734;8.950;2023-05-07T00:07:15;20.63;;;15.30;;
4726;SDS011;2377;51.734;8.950;2023-05-07T00:09:42;20.40;;;16.13;;
4726;SDS011;2377;51.734;8.950;2023-05-07T00:12:09;19.67;;;14.60;;
4726;SDS011;2377;51.734;8.950;2023-05-07T00:14:38;19.37;;;15.83;;
4726;SDS011;2377;51.734;8.950;2023-05-07T00:17:05;23.63;;;17.20;;
4726;SDS011;2377;51.734;8.950;2023-05-07T00:19:32;23.40;;;17.83;;
4726;SDS011;2377;51.734;8.950;2023-05-07T00:21:59;23.70;;;18.60;;
4726;SDS011;2377;51.734;8.950;2023-05-07T00:24:26;25.00;;;17.03;;
4726;SDS011;2377;51.734;8.950;2023-05-07T00:26:53;28.73;;;18.53;;
4726;SDS011;2377;51.734;8.950;2023-05-07T00:29:20;24.83;;;16.03;;
4726;SDS011;2377;51.734;8.950;2023-05-07T00:31:50;24.93;;;16.60;;
4726;SDS011;2377;51.734;8.950;2023-05-07T00:34:19;27.70;;;20.20;;
4726;SDS011;2377;51.734;8.950;2023-05-07T00:36:46;23.53;;;17.50;;
4726;SDS011;2377;51.734;8.950;2023-05-07T00:39:13;26.07;;;18.93;;
4726;SDS011;2377;51.734;8.950;2023-05-07T00:41:40;23.17;;;17.30;;
4726;SDS011;2377;51.734;8.950;2023-05-07T00:44:07;25.57;;;17.83;;
4726;SDS011;2377;51.734;8.950;2023-05-07T00:46:34;25.33;;;16.77;;
4726;SDS011;2377;51.734;8.950;2023-05-07T00:49:03;25.50;;;18.70;;
4726;SDS011;2377;51.734;8.950;2023-05-07T00:51:31;30.37;;;20.63;;
4726;SDS011;2377;51.734;8.950;2023-05-07T00:54:00;23.80;;;18.50;;
4726;SDS011;2377;51.734;8.950;2023-05-07T00:56:29;23.83;;;17.80;;
4726;SDS011;2377;51.734;8.950;2023-05-07T00:58:58;22.23;;;17.10;;
4726;SDS011;2377;51.734;8.950;2023-05-07T01:01:26;21.80;;;17.10;;
4726;SDS011;2377;51.734;8.950;2023-05-07T01:03:53;20.50;;;15.93;;
4726;SDS011;2377;51.734;8.950;2023-05-07T01:06:22;20.43;;;16.47;;
4726;SDS011;2377;51.734;8.950;2023-05-07T01:08:52;23.73;;;17.47;;
4726;SDS011;2377;51.734;8.950;2023-05-07T01:11:21;24.60;;;18.30;;
4726;SDS011;2377;51.734;8.950;2023-05-07T01:13:50;23.27;;;18.13;;
4726;SDS011;2377;51.734;8.950;2023-05-07T01:16:18;29.43;;;18.50;;
4726;SDS011;2377;51.734;8.950;2023-05-07T01:18:45;25.83;;;19.37;;
4726;SDS011;2377;51.734;8.950;2023-05-07T01:21:14;26.00;;;19.10;;
4726;SDS011;2377;51.734;8.950;2023-05-07T01:23:45;22.73;;;17.37;;
4726;SDS011;2377;51.734;8.950;2023-05-07T01:26:13;21.13;;;16.97;;
4726;SDS011;2377;51.734;8.950;2023-05-07T01:28:41;26.60;;;18.53;;
4726;SDS011;2377;51.734;8.950;2023-05-07T01:31:08;23.70;;;17.50;;
4726;SDS011;2377;51.734;8.950;2023-05-07T01:33:36;23.17;;;16.80;;
4726;SDS011;2377;51.734;8.950;2023-05-07T01:36:09;21.87;;;17.07;;
4726;SDS011;2377;51.734;8.950;2023-05-07T01:38:38;22.87;;;18.20;;
4726;SDS011;2377;51.734;8.950;2023-05-07T01:41:09;20.07;;;16.07;;
4726;SDS011;2377;51.734;8.950;2023-05-07T01:43:37;25.10;;;18.30;;
4726;SDS011;2377;51.734;8.950;2023-05-07T01:46:07;23.00;;;17.53;;
4726;SDS011;2377;51.734;8.950;2023-05-07T01:48:36;33.37;;;18.33;;
4726;SDS011;2377;51.734;8.950;2023-05-07T01:51:04;23.53;;;17.17;;
4726;SDS011;2377;51.734;8.950;2023-05-07T01:53:35;26.87;;;18.00;;
4726;SDS011;2377;51.734;8.950;2023-05-07T01:56:03;23.17;;;16.60;;
4726;SDS011;2377;51.734;8.950;2023-05-07T01:58:32;25.67;;;18.47;;
4726;SDS011;2377;51.734;8.950;2023-05-07T02:00:59;32.37;;;18.67;;
4726;SDS011;2377;51.734;8.950;2023-05-07T02:03:26;19.33;;;15.10;;
4726;SDS011;2377;51.734;8.950;2023-05-07T02:05:54;21.97;;;15.33;;
4726;SDS011;2377;51.734;8.950;2023-05-07T02:08:21;21.63;;;15.80;;
4726;SDS011;2377;51.734;8.950;2023-05-07T02:10:48;23.37;;;16.43;;
4726;SDS011;2377;51.734;8.950;2023-05-07T02:13:16;23.43;;;17.30;;
4726;SDS011;2377;51.734;8.950;2023-05-07T02:15:46;31.83;;;20.27;;
4726;SDS011;2377;51.734;8.950;2023-05-07T02:18:15;25.40;;;17.97;;
4726;SDS011;2377;51.734;8.950;2023-05-07T02:20:43;23.90;;;18.10;;
4726;SDS011;2377;51.734;8.950;2023-05-07T02:23:10;23.73;;;17.30;;
4726;SDS011;2377;51.734;8.950;2023-05-07T02:25:37;27.13;;;20.53;;
4726;SDS011;2377;51.734;8.950;2023-05-07T02:28:04;23.77;;;17.67;;
4726;SDS011;2377;51.734;8.950;2023-05-07T02:30:32;22.93;;;17.77;;
4726;SDS011;2377;51.734;8.950;2023-05-07T02:33:00;28.87;;;20.27;;
4726;SDS011;2377;51.734;8.950;2023-05-07T02:35:27;27.17;;;17.33;;
4726;SDS011;2377;51.734;8.950;2023-05-07T02:37:54;27.50;;;19.73;;
4726;SDS011;2377;51.734;8.950;2023-05-07T02:40:22;27.73;;;20.17;;
4726;SDS011;2377;51.734;8.950;2023-05-07T02:42:49;25.50;;;18.30;;
4726;SDS011;2377;51.734;8.950;2023-05-07T02:45:16;25.40;;;19.00;;
4726;SDS011;2377;51.734;8.950;2023-05-07T02:47:43;26.10;;;17.30;;
4726;SDS011;2377;51.734;8.950;2023-05-07T02:50:13;27.27;;;17.40;;
4726;SDS011;2377;51.734;8.950;2023-05-07T02:52:40;37.23;;;19.47;;
4726;SDS011;2377;51.734;8.950;2023-05-07T02:55:07;29.90;;;19.40;;
4726;SDS011;2377;51.734;8.950;2023-05-07T02:57:35;29.03;;;20.00;;
4726;SDS011;2377;51.734;8.950;2023-05-07T03:00:09;29.80;;;19.37;;
4726;SDS011;2377;51.734;8.950;2023-05-07T03:02:39;28.80;;;20.13;;
4726;SDS011;2377;51.734;8.950;2023-05-07T03:05:06;31.33;;;19.23;;
4726;SDS011;2377;51.734;8.950;2023-05-07T03:07:35;28.03;;;19.13;;
4726;SDS011;2377;51.734;8.950;2023-05-07T03:10:03;28.27;;;20.40;;
4726;SDS011;2377;51.734;8.950;2023-05-07T03:12:31;27.47;;;18.43;;
4726;SDS011;2377;51.734;8.950;2023-05-07T03:14:58;30.90;;;20.33;;
4726;SDS011;2377;51.734;8.950;2023-05-07T03:17:25;30.10;;;21.90;;
4726;SDS011;2377;51.734;8.950;2023-05-07T03:19:52;33.33;;;23.10;;
4726;SDS011;2377;51.734;8.950;2023-05-07T03:22:19;35.30;;;23.97;;
4726;SDS011;2377;51.734;8.950;2023-05-07T03:24:48;34.53;;;22.10;;
4726;SDS011;2377;51.734;8.950;2023-05-07T03:27:15;35.83;;;23.60;;
4726;SDS011;2377;51.734;8.950;2023-05-07T03:29:42;32.80;;;22.47;;
4726;SDS011;2377;51.734;8.950;2023-05-07T03:32:09;31.50;;;20.60;;
4726;SDS011;2377;51.734;8.950;2023-05-07T03:34:36;36.57;;;25.67;;
4726;SDS011;2377;51.734;8.950;2023-05-07T03:37:03;37.93;;;25.30;;
4726;SDS011;2377;51.734;8.950;2023-05-07T03:39:31;33.57;;;23.37;;
4726;SDS011;2377;51.734;8.950;2023-05-07T03:41:59;36.17;;;23.83;;
4726;SDS011;2377;51.734;8.950;2023-05-07T03:44:27;33.63;;;22.50;;
4726;SDS011;2377;51.734;8.950;2023-05-07T03:46:54;32.90;;;23.10;;
4726;SDS011;2377;51.734;8.950;2023-05-07T03:49:21;36.90;;;22.90;;
4726;SDS011;2377;51.734;8.950;2023-05-07T03:51:48;35.33;;;23.67;;
4726;SDS011;2377;51.734;8.950;2023-05-07T03:54:15;30.60;;;21.00;;
4726;SDS011;2377;51.734;8.950;2023-05-07T03:56:43;36.63;;;24.03;;
4726;SDS011;2377;51.734;8.950;2023-05-07T03:59:11;31.37;;;21.60;;
4726;SDS011;2377;51.734;8.950;2023-05-07T04:01:39;34.10;;;23.00;;
4726;SDS011;2377;51.734;8.950;2023-05-07T04:04:06;33.73;;;23.47;;
4726;SDS011;2377;51.734;8.950;2023-05-07T04:06:33;35.40;;;24.33;;
4726;SDS011;2377;51.734;8.950;2023-05-07T04:09:00;38.63;;;25.67;;
4726;SDS011;2377;51.734;8.950;2023-05-07T04:11:27;39.43;;;24.90;;
4726;SDS011;2377;51.734;8.950;2023-05-07T04:13:54;36.17;;;22.97;;
4726;SDS011;2377;51.734;8.950;2023-05-07T04:16:23;33.00;;;23.80;;
4726;SDS011;2377;51.734;8.950;2023-05-07T04:18:50;37.30;;;24.47;;
4726;SDS011;2377;51.734;8.950;2023-05-07T04:21:17;38.07;;;25.63;;
4726;SDS011;2377;51.734;8.950;2023-05-07T04:23:47;34.03;;;22.70;;
4726;SDS011;2377;51.734;8.950;2023-05-07T04:26:15;34.93;;;23.23;;
4726;SDS011;2377;51.734;8.950;2023-05-07T04:28:42;30.73;;;21.47;;
4726;SDS011;2377;51.734;8.950;2023-05-07T04:31:09;37.40;;;21.87;;
4726;SDS011;2377;51.734;8.950;2023-05-07T04:33:38;39.93;;;27.27;;
4726;SDS011;2377;51.734;8.950;2023-05-07T04:36:05;35.50;;;23.20;;
4726;SDS011;2377;51.734;8.950;2023-05-07T04:38:32;40.10;;;25.73;;
4726;SDS011;2377;51.734;8.950;2023-05-07T04:41:02;34.00;;;22.87;;
4726;SDS011;2377;51.734;8.950;2023-05-07T04:43:30;37.53;;;23.80;;
4726;SDS011;2377;51.734;8.950;2023-05-07T04:45:57;33.30;;;23.07;;
4726;SDS011;2377;51.734;8.950;2023-05-07T04:48:24;32.73;;;22.00;;
4726;SDS011;2377;51.734;8.950;2023-05-07T04:50:52;32.57;;;22.23;;
4726;SDS011;2377;51.734;8.950;2023-05-07T04:53:20;35.53;;;22.63;;
4726;SDS011;2377;51.734;8.950;2023-05-07T04:55:47;28.90;;;20.03;;
4726;SDS011;2377;51.734;8.950;2023-05-07T04:58:14;30.03;;;20.63;;
4726;SDS011;2377;51.734;8.950;2023-05-07T05:00:41;30.17;;;20.07;;
4726;SDS011;2377;51.734;8.950;2023-05-07T05:03:08;35.50;;;22.27;;
4726;SDS011;2377;51.734;8.950;2023-05-07T05:05:36;34.73;;;21.67;;
4726;SDS011;2377;51.734;8.950;2023-05-07T05:08:04;30.03;;;21.70;;
4726;SDS011;2377;51.734;8.950;2023-05-07T05:10:32;28.80;;;20.80;;
4726;SDS011;2377;51.734;8.950;2023-05-07T05:12:59;30.40;;;21.37;;
4726;SDS011;2377;51.734;8.950;2023-05-07T05:15:26;31.87;;;21.03;;
4726;SDS011;2377;51.734;8.950;2023-05-07T05:17:53;36.27;;;22.37;;
4726;SDS011;2377;51.734;8.950;2023-05-07T05:20:20;28.63;;;18.73;;
4726;SDS011;2377;51.734;8.950;2023-05-07T05:22:47;27.97;;;18.40;;
4726;SDS011;2377;51.734;8.950;2023-05-07T05:25:15;30.57;;;19.43;;
4726;SDS011;2377;51.734;8.950;2023-05-07T05:27:43;29.63;;;19.83;;
4726;SDS011;2377;51.734;8.950;2023-05-07T05:30:10;29.47;;;18.73;;
4726;SDS011;2377;51.734;8.950;2023-05-07T05:32:39;32.50;;;21.80;;
4726;SDS011;2377;51.734;8.950;2023-05-07T05:35:06;31.87;;;18.90;;
4726;SDS011;2377;51.734;8.950;2023-05-07T05:37:34;33.20;;;20.53;;
4726;SDS011;2377;51.734;8.950;2023-05-07T05:40:01;30.37;;;20.43;;
4726;SDS011;2377;51.734;8.950;2023-05-07T05:42:31;25.50;;;17.47;;
4726;SDS011;2377;51.734;8.950;2023-05-07T05:44:58;26.10;;;17.57;;
4726;SDS011;2377;51.734;8.950;2023-05-07T05:47:25;28.87;;;19.50;;
4726;SDS011;2377;51.734;8.950;2023-05-07T05:49:52;31.03;;;19.70;;
4726;SDS011;2377;51.734;8.950;2023-05-07T05:52:19;24.20;;;16.20;;
4726;SDS011;2377;51.734;8.950;2023-05-07T05:54:48;30.90;;;19.13;;
4726;SDS011;2377;51.734;8.950;2023-05-07T05:57:15;31.63;;;21.03;;
4726;SDS011;2377;51.734;8.950;2023-05-07T05:59:44;28.43;;;18.77;;
4726;SDS011;2377;51.734;8.950;2023-05-07T06:02:12;29.27;;;19.53;;
4726;SDS011;2377;51.734;8.950;2023-05-07T06:04:39;34.03;;;20.13;;
4726;SDS011;2377;51.734;8.950;2023-05-07T06:07:07;27.67;;;18.00;;
4726;SDS011;2377;51.734;8.950;2023-05-07T06:09:34;28.70;;;20.13;;
4726;SDS011;2377;51.734;8.950;2023-05-07T06:12:01;29.20;;;18.80;;
4726;SDS011;2377;51.734;8.950;2023-05-07T06:14:29;29.80;;;20.37;;
4726;SDS011;2377;51.734;8.950;2023-05-07T06:19:25;21.00;;;15.40;;
4726;SDS011;2377;51.734;8.950;2023-05-07T06:21:53;25.47;;;16.97;;
4726;SDS011;2377;51.734;8.950;2023-05-07T06:24:21;24.57;;;16.57;;
4726;SDS011;2377;51.734;8.950;2023-05-07T06:26:48;25.00;;;16.77;;
4726;SDS011;2377;51.734;8.950;2023-05-07T06:29:15;23.23;;;15.50;;
4726;SDS011;2377;51.734;8.950;2023-05-07T06:31:43;25.47;;;16.50;;
4726;SDS011;2377;51.734;8.950;2023-05-07T06:34:11;25.80;;;18.17;;
4726;SDS011;2377;51.734;8.950;2023-05-07T06:36:40;24.90;;;17.27;;
4726;SDS011;2377;51.734;8.950;2023-05-07T06:39:07;27.77;;;18.60;;
4726;SDS011;2377;51.734;8.950;2023-05-07T06:41:34;25.07;;;18.33;;
4726;SDS011;2377;51.734;8.950;2023-05-07T06:44:01;26.63;;;17.70;;
4726;SDS011;2377;51.734;8.950;2023-05-07T06:46:30;21.53;;;14.70;;
4726;SDS011;2377;51.734;8.950;2023-05-07T06:48:57;30.50;;;18.07;;
4726;SDS011;2377;51.734;8.950;2023-05-07T06:51:25;24.50;;;14.97;;
4726;SDS011;2377;51.734;8.950;2023-05-07T06:53:52;22.60;;;16.27;;
4726;SDS011;2377;51.734;8.950;2023-05-07T06:56:19;20.23;;;14.10;;
4726;SDS011;2377;51.734;8.950;2023-05-07T06:58:47;20.77;;;14.30;;
4726;SDS011;2377;51.734;8.950;2023-05-07T07:01:14;20.40;;;14.87;;
4726;SDS011;2377;51.734;8.950;2023-05-07T07:03:42;21.23;;;14.73;;
4726;SDS011;2377;51.734;8.950;2023-05-07T07:06:09;20.80;;;13.87;;
4726;SDS011;2377;51.734;8.950;2023-05-07T07:08:37;18.40;;;13.77;;
4726;SDS011;2377;51.734;8.950;2023-05-07T07:11:04;19.00;;;14.13;;
4726;SDS011;2377;51.734;8.950;2023-05-07T07:13:32;19.23;;;13.33;;
4726;SDS011;2377;51.734;8.950;2023-05-07T07:15:59;21.20;;;14.40;;
4726;SDS011;2377;51.734;8.950;2023-05-07T07:18:26;20.57;;;14.50;;
4726;SDS011;2377;51.734;8.950;2023-05-07T07:20:53;20.43;;;14.20;;
4726;SDS011;2377;51.734;8.950;2023-05-07T07:23:20;17.70;;;12.97;;
4726;SDS011;2377;51.734;8.950;2023-05-07T07:25:49;23.80;;;16.53;;
4726;SDS011;2377;51.734;8.950;2023-05-07T07:28:16;20.43;;;15.00;;
4726;SDS011;2377;51.734;8.950;2023-05-07T07:30:44;24.33;;;15.50;;
4726;SDS011;2377;51.734;8.950;2023-05-07T07:33:11;22.70;;;15.23;;
4726;SDS011;2377;51.734;8.950;2023-05-07T07:35:38;19.83;;;14.83;;
4726;SDS011;2377;51.734;8.950;2023-05-07T07:38:05;19.80;;;15.00;;
4726;SDS011;2377;51.734;8.950;2023-05-07T07:40:34;24.80;;;14.40;;
4726;SDS011;2377;51.734;8.950;2023-05-07T07:43:02;19.50;;;13.70;;
4726;SDS011;2377;51.734;8.950;2023-05-07T07:45:30;22.43;;;16.17;;
4726;SDS011;2377;51.734;8.950;2023-05-07T07:47:57;23.70;;;15.80;;
4726;SDS011;2377;51.734;8.950;2023-05-07T07:50:24;19.13;;;13.70;;
4726;SDS011;2377;51.734;8.950;2023-05-07T07:52:51;18.70;;;13.60;;
4726;SDS011;2377;51.734;8.950;2023-05-07T07:55:19;23.17;;;14.00;;
4726;SDS011;2377;51.734;8.950;2023-05-07T07:57:48;20.77;;;14.60;;
4726;SDS011;2377;51.734;8.950;2023-05-07T08:00:17;20.83;;;15.03;;
4726;SDS011;2377;51.734;8.950;2023-05-07T08:02:44;23.70;;;16.00;;
4726;SDS011;2377;51.734;8.950;2023-05-07T08:05:12;20.60;;;14.23;;
4726;SDS011;2377;51.734;8.950;2023-05-07T08:07:40;22.23;;;14.57;;
4726;SDS011;2377;51.734;8.950;2023-05-07T08:10:07;22.40;;;15.13;;
4726;SDS011;2377;51.734;8.950;2023-05-07T08:12:35;20.57;;;14.87;;
4726;SDS011;2377;51.734;8.950;2023-05-07T08:15:02;22.00;;;14.20;;
4726;SDS011;2377;51.734;8.950;2023-05-07T08:17:32;21.20;;;14.57;;
4726;SDS011;2377;51.734;8.950;2023-05-07T08:19:59;18.73;;;13.43;;
4726;SDS011;2377;51.734;8.950;2023-05-07T08:22:26;19.63;;;13.67;;
4726;SDS011;2377;51.734;8.950;2023-05-07T08:24:53;21.93;;;13.40;;
4726;SDS011;2377;51.734;8.950;2023-05-07T08:27:20;19.70;;;13.90;;
4726;SDS011;2377;51.734;8.950;2023-05-07T08:29:47;22.83;;;14.90;;
4726;SDS011;2377;51.734;8.950;2023-05-07T08:32:14;21.33;;;14.33;;
4726;SDS011;2377;51.734;8.950;2023-05-07T08:34:43;20.00;;;13.33;;
4726;SDS011;2377;51.734;8.950;2023-05-07T08:37:10;23.10;;;15.07;;
4726;SDS011;2377;51.734;8.950;2023-05-07T08:39:37;21.83;;;15.17;;
4726;SDS011;2377;51.734;8.950;2023-05-07T08:42:04;22.03;;;14.53;;
4726;SDS011;2377;51.734;8.950;2023-05-07T08:44:35;22.93;;;13.67;;
4726;SDS011;2377;51.734;8.950;2023-05-07T08:47:07;22.67;;;14.20;;
4726;SDS011;2377;51.734;8.950;2023-05-07T08:49:35;24.30;;;15.00;;
4726;SDS011;2377;51.734;8.950;2023-05-07T08:52:03;20.40;;;13.60;;
4726;SDS011;2377;51.734;8.950;2023-05-07T08:54:31;20.40;;;14.17;;
4726;SDS011;2377;51.734;8.950;2023-05-07T08:57:00;19.77;;;13.07;;
4726;SDS011;2377;51.734;8.950;2023-05-07T08:59:27;19.80;;;13.93;;
4726;SDS011;2377;51.734;8.950;2023-05-07T09:01:55;19.90;;;14.27;;
4726;SDS011;2377;51.734;8.950;2023-05-07T09:04:22;21.87;;;15.33;;
4726;SDS011;2377;51.734;8.950;2023-05-07T09:06:49;20.87;;;14.20;;
4726;SDS011;2377;51.734;8.950;2023-05-07T09:09:18;22.60;;;14.70;;
4726;SDS011;2377;51.734;8.950;2023-05-07T09:11:45;20.30;;;13.67;;
4726;SDS011;2377;51.734;8.950;2023-05-07T09:14:12;19.57;;;14.07;;
4726;SDS011;2377;51.734;8.950;2023-05-07T09:16:39;22.60;;;14.30;;
4726;SDS011;2377;51.734;8.950;2023-05-07T09:19:07;17.93;;;12.93;;
4726;SDS011;2377;51.734;8.950;2023-05-07T09:21:34;19.13;;;12.63;;
4726;SDS011;2377;51.734;8.950;2023-05-07T09:24:02;17.80;;;12.47;;
4726;SDS011;2377;51.734;8.950;2023-05-07T09:26:30;17.93;;;12.27;;
4726;SDS011;2377;51.734;8.950;2023-05-07T09:28:59;18.90;;;12.77;;
4726;SDS011;2377;51.734;8.950;2023-05-07T09:31:26;19.83;;;13.47;;
4726;SDS011;2377;51.734;8.950;2023-05-07T09:33:56;19.93;;;12.20;;
4726;SDS011;2377;51.734;8.950;2023-05-07T09:36:24;16.37;;;11.57;;
4726;SDS011;2377;51.734;8.950;2023-05-07T09:38:53;19.80;;;12.33;;
4726;SDS011;2377;51.734;8.950;2023-05-07T09:41:21;18.90;;;13.33;;
4726;SDS011;2377;51.734;8.950;2023-05-07T09:43:53;17.07;;;11.80;;
4726;SDS011;2377;51.734;8.950;2023-05-07T09:46:21;16.07;;;11.90;;
4726;SDS011;2377;51.734;8.950;2023-05-07T09:48:57;19.40;;;12.00;;
4726;SDS011;2377;51.734;8.950;2023-05-07T09:51:28;17.00;;;11.83;;
4726;SDS011;2377;51.734;8.950;2023-05-07T09:54:00;18.10;;;13.00;;
4726;SDS011;2377;51.734;8.950;2023-05-07T09:56:29;14.93;;;11.13;;
4726;SDS011;2377;51.734;8.950;2023-05-07T09:58:59;16.10;;;11.77;;
4726;SDS011;2377;51.734;8.950;2023-05-07T10:01:27;16.67;;;12.07;;
4726;SDS011;2377;51.734;8.950;2023-05-07T10:03:56;15.47;;;10.67;;
4726;SDS011;2377;51.734;8.950;2023-05-07T10:06:25;18.00;;;11.10;;
4726;SDS011;2377;51.734;8.950;2023-05-07T10:08:53;14.77;;;10.77;;
4726;SDS011;2377;51.734;8.950;2023-05-07T10:11:22;15.23;;;11.00;;
4726;SDS011;2377;51.734;8.950;2023-05-07T10:13:49;16.23;;;11.57;;
4726;SDS011;2377;51.734;8.950;2023-05-07T10:16:20;14.93;;;10.13;;
4726;SDS011;2377;51.734;8.950;2023-05-07T10:18:47;17.50;;;11.00;;
4726;SDS011;2377;51.734;8.950;2023-05-07T10:21:16;14.53;;;10.00;;
4726;SDS011;2377;51.734;8.950;2023-05-07T10:23:48;16.73;;;10.80;;
4726;SDS011;2377;51.734;8.950;2023-05-07T10:26:18;14.17;;;11.20;;
4726;SDS011;2377;51.734;8.950;2023-05-07T10:28:51;13.20;;;9.90;;
4726;SDS011;2377;51.734;8.950;2023-05-07T10:31:32;14.17;;;10.43;;
4726;SDS011;2377;51.734;8.950;2023-05-07T10:34:20;12.63;;;9.37;;
4726;SDS011;2377;51.734;8.950;2023-05-07T10:36:52;16.13;;;10.33;;
4726;SDS011;2377;51.734;8.950;2023-05-07T10:39:22;14.93;;;10.30;;
4726;SDS011;2377;51.734;8.950;2023-05-07T10:41:49;15.03;;;9.30;;
4726;SDS011;2377;51.734;8.950;2023-05-07T10:44:24;15.20;;;10.67;;
4726;SDS011;2377;51.734;8.950;2023-05-07T10:47:05;15.20;;;10.83;;
4726;SDS011;2377;51.734;8.950;2023-05-07T10:49:34;12.90;;;9.60;;
4726;SDS011;2377;51.734;8.950;2023-05-07T10:52:13;14.70;;;8.20;;
4726;SDS011;2377;51.734;8.950;2023-05-07T10:54:41;13.83;;;9.97;;
4726;SDS011;2377;51.734;8.950;2023-05-07T11:00:03;14.83;;;7.63;;
4726;SDS011;2377;51.734;8.950;2023-05-07T11:03:11;13.10;;;8.43;;
4726;SDS011;2377;51.734;8.950;2023-05-07T11:05:39;11.97;;;8.90;;
4726;SDS011;2377;51.734;8.950;2023-05-07T11:08:08;10.43;;;8.00;;
4726;SDS011;2377;51.734;8.950;2023-05-07T11:10:49;10.77;;;8.27;;
4726;SDS011;2377;51.734;8.950;2023-05-07T11:13:18;12.10;;;7.33;;
4726;SDS011;2377;51.734;8.950;2023-05-07T11:16:16;10.57;;;7.50;;
4726;SDS011;2377;51.734;8.950;2023-05-07T11:18:49;10.57;;;7.37;;
4726;SDS011;2377;51.734;8.950;2023-05-07T11:21:34;8.20;;;6.30;;
4726;SDS011;2377;51.734;8.950;2023-05-07T11:24:05;10.07;;;8.20;;
4726;SDS011;2377;51.734;8.950;2023-05-07T11:26:43;9.10;;;6.87;;
4726;SDS011;2377;51.734;8.950;2023-05-07T11:29:14;10.73;;;7.33;;
4726;SDS011;2377;51.734;8.950;2023-05-07T11:31:42;9.90;;;7.50;;
4726;SDS011;2377;51.734;8.950;2023-05-07T11:34:11;12.13;;;8.10;;
4726;SDS011;2377;51.734;8.950;2023-05-07T11:36:41;9.00;;;6.33;;
4726;SDS011;2377;51.734;8.950;2023-05-07T11:39:25;8.10;;;6.50;;
4726;SDS011;2377;51.734;8.950;2023-05-07T11:41:54;11.37;;;8.70;;
4726;SDS011;2377;51.734;8.950;2023-05-07T11:44:21;11.03;;;8.30;;
4726;SDS011;2377;51.734;8.950;2023-05-07T11:46:48;11.43;;;8.23;;
4726;SDS011;2377;51.734;8.950;2023-05-07T11:49:17;9.97;;;7.23;;
4726;SDS011;2377;51.734;8.950;2023-05-07T11:51:45;9.67;;;7.03;;
4726;SDS011;2377;51.734;8.950;2023-05-07T11:54:14;10.70;;;6.93;;
4726;SDS011;2377;51.734;8.950;2023-05-07T11:56:43;10.03;;;6.73;;
4726;SDS011;2377;51.734;8.950;2023-05-07T11:59:12;10.40;;;6.83;;
4726;SDS011;2377;51.734;8.950;2023-05-07T12:01:45;9.40;;;7.47;;
4726;SDS011;2377;51.734;8.950;2023-05-07T12:04:13;10.43;;;7.90;;
4726;SDS011;2377;51.734;8.950;2023-05-07T12:06:41;8.40;;;6.27;;
4726;SDS011;2377;51.734;8.950;2023-05-07T12:09:08;10.50;;;8.03;;
4726;SDS011;2377;51.734;8.950;2023-05-07T12:11:36;10.70;;;7.70;;
4726;SDS011;2377;51.734;8.950;2023-05-07T12:14:05;10.90;;;8.17;;
4726;SDS011;2377;51.734;8.950;2023-05-07T12:16:32;9.20;;;7.30;;
4726;SDS011;2377;51.734;8.950;2023-05-07T12:19:00;10.77;;;8.17;;
4726;SDS011;2377;51.734;8.950;2023-05-07T12:21:28;10.40;;;8.80;;
4726;SDS011;2377;51.734;8.950;2023-05-07T12:23:57;10.53;;;7.93;;
4726;SDS011;2377;51.734;8.950;2023-05-07T12:26:24;8.33;;;6.87;;
4726;SDS011;2377;51.734;8.950;2023-05-07T12:28:51;11.50;;;8.33;;
4726;SDS011;2377;51.734;8.950;2023-05-07T12:31:18;11.43;;;7.90;;
4726;SDS011;2377;51.734;8.950;2023-05-07T12:33:46;10.80;;;7.90;;
4726;SDS011;2377;51.734;8.950;2023-05-07T12:36:13;11.67;;;9.00;;
4726;SDS011;2377;51.734;8.950;2023-05-07T12:38:41;11.60;;;8.40;;
4726;SDS011;2377;51.734;8.950;2023-05-07T12:41:10;10.63;;;8.37;;
4726;SDS011;2377;51.734;8.950;2023-05-07T12:43:38;11.50;;;8.87;;
4726;SDS011;2377;51.734;8.950;2023-05-07T12:46:05;11.17;;;8.33;;
4726;SDS011;2377;51.734;8.950;2023-05-07T12:48:35;11.50;;;9.60;;
4726;SDS011;2377;51.734;8.950;2023-05-07T12:51:03;11.90;;;8.73;;
4726;SDS011;2377;51.734;8.950;2023-05-07T12:53:39;12.30;;;9.80;;
4726;SDS011;2377;51.734;8.950;2023-05-07T12:56:07;15.80;;;11.60;;
4726;SDS011;2377;51.734;8.950;2023-05-07T12:58:37;12.70;;;9.57;;
4726;SDS011;2377;51.734;8.950;2023-05-07T13:01:04;13.80;;;9.60;;
4726;SDS011;2377;51.734;8.950;2023-05-07T13:03:35;13.50;;;9.80;;
4726;SDS011;2377;51.734;8.950;2023-05-07T13:06:04;12.83;;;9.97;;
4726;SDS011;2377;51.734;8.950;2023-05-07T13:08:35;12.57;;;9.30;;
4726;SDS011;2377;51.734;8.950;2023-05-07T13:11:06;15.93;;;11.43;;
4726;SDS011;2377;51.734;8.950;2023-05-07T13:13:37;13.13;;;10.37;;
4726;SDS011;2377;51.734;8.950;2023-05-07T13:16:07;17.63;;;12.87;;
4726;SDS011;2377;51.734;8.950;2023-05-07T13:18:36;14.57;;;10.90;;
4726;SDS011;2377;51.734;8.950;2023-05-07T13:21:05;16.37;;;12.07;;
4726;SDS011;2377;51.734;8.950;2023-05-07T13:23:33;13.33;;;11.20;;
4726;SDS011;2377;51.734;8.950;2023-05-07T13:26:00;15.00;;;11.77;;
4726;SDS011;2377;51.734;8.950;2023-05-07T13:28:29;15.00;;;11.90;;
4726;SDS011;2377;51.734;8.950;2023-05-07T13:30:56;16.40;;;12.03;;
4726;SDS011;2377;51.734;8.950;2023-05-07T13:33:23;14.23;;;11.50;;
4726;SDS011;2377;51.734;8.950;2023-05-07T13:35:50;16.43;;;12.57;;
4726;SDS011;2377;51.734;8.950;2023-05-07T13:38:17;14.60;;;11.17;;
4726;SDS011;2377;51.734;8.950;2023-05-07T13:40:44;15.43;;;12.80;;
4726;SDS011;2377;51.734;8.950;2023-05-07T13:43:11;18.57;;;12.90;;
4726;SDS011;2377;51.734;8.950;2023-05-07T13:45:40;17.33;;;13.67;;
4726;SDS011;2377;51.734;8.950;2023-05-07T13:48:07;17.53;;;13.33;;
4726;SDS011;2377;51.734;8.950;2023-05-07T13:50:35;17.23;;;13.60;;
4726;SDS011;2377;51.734;8.950;2023-05-07T13:53:02;16.53;;;13.20;;
4726;SDS011;2377;51.734;8.950;2023-05-07T13:55:29;17.50;;;13.80;;
4726;SDS011;2377;51.734;8.950;2023-05-07T13:57:56;17.30;;;13.40;;
4726;SDS011;2377;51.734;8.950;2023-05-07T14:00:25;21.67;;;15.40;;
4726;SDS011;2377;51.734;8.950;2023-05-07T14:02:55;19.30;;;14.60;;
4726;SDS011;2377;51.734;8.950;2023-05-07T14:05:24;17.33;;;13.80;;
4726;SDS011;2377;51.734;8.950;2023-05-07T14:07:55;16.30;;;12.27;;
4726;SDS011;2377;51.734;8.950;2023-05-07T14:10:29;17.40;;;13.60;;
4726;SDS011;2377;51.734;8.950;2023-05-07T14:12:59;15.50;;;12.07;;
4726;SDS011;2377;51.734;8.950;2023-05-07T14:15:26;17.30;;;13.47;;
4726;SDS011;2377;51.734;8.950;2023-05-07T14:17:55;17.83;;;11.50;;
4726;SDS011;2377;51.734;8.950;2023-05-07T14:20:24;15.77;;;12.63;;
4726;SDS011;2377;51.734;8.950;2023-05-07T14:22:51;17.23;;;12.77;;
4726;SDS011;2377;51.734;8.950;2023-05-07T14:25:18;16.97;;;13.60;;
4726;SDS011;2377;51.734;8.950;2023-05-07T14:27:45;16.37;;;13.23;;
4726;SDS011;2377;51.734;8.950;2023-05-07T14:30:12;16.13;;;12.10;;
4726;SDS011;2377;51.734;8.950;2023-05-07T14:32:39;15.53;;;13.17;;
4726;SDS011;2377;51.734;8.950;2023-05-07T14:35:08;17.60;;;14.03;;
4726;SDS011;2377;51.734;8.950;2023-05-07T14:37:35;16.67;;;14.30;;
4726;SDS011;2377;51.734;8.950;2023-05-07T14:40:02;19.37;;;13.70;;
4726;SDS011;2377;51.734;8.950;2023-05-07T14:42:31;15.47;;;12.73;;
4726;SDS011;2377;51.734;8.950;2023-05-07T14:44:58;18.50;;;14.23;;
4726;SDS011;2377;51.734;8.950;2023-05-07T14:47:25;18.30;;;14.83;;
4726;SDS011;2377;51.734;8.950;2023-05-07T14:49:52;16.50;;;13.83;;
4726;SDS011;2377;51.734;8.950;2023-05-07T14:52:20;17.30;;;14.00;;
4726;SDS011;2377;51.734;8.950;2023-05-07T14:54:47;15.00;;;12.53;;
4726;SDS011;2377;51.734;8.950;2023-05-07T14:57:14;14.20;;;12.70;;
4726;SDS011;2377;51.734;8.950;2023-05-07T14:59:43;16.70;;;13.17;;
4726;SDS011;2377;51.734;8.950;2023-05-07T15:02:12;14.37;;;12.33;;
4726;SDS011;2377;51.734;8.950;2023-05-07T15:04:40;15.80;;;12.63;;